sensor_id;sensor_type;location;lat;lon;timestamp;temperature;humidity
59146;DHT22;44928;53.074;6.646;2023-05-13T00:00:13;12.70;99.90
59146;DHT22;44928;53.074;6.646;2023-05-13T00:02:39;12.70;99.90
59146;DHT22;44928;53.074;6.646;2023-05-13T00:05:05;12.70;99.90
59146;DHT22;44928;53.074;6.646;2023-05-13T00:07:31;12.70;99.90
59146;DHT22;44928;53.074;6.646;2023-05-13T00:09:57;12.70;99.90
59146;DHT22;44928;53.074;6.646;2023-05-13T00:12:23;12.70;99.90
59146;DHT22;44928;53.074;6.646;2023-05-13T00:14:48;12.60;99.90
59146;DHT22;44928;53.074;6.646;2023-05-13T00:17:14;12.60;99.90
59146;DHT22;44928;53.074;6.646;2023-05-13T00:19:40;12.60;99.90
59146;DHT22;44928;53.074;6.646;2023-05-13T00:22:06;12.60;99.90
59146;DHT22;44928;53.074;6.646;2023-05-13T00:24:31;12.50;99.90
59146;DHT22;44928;53.074;6.646;2023-05-13T00:26:57;12.50;99.90
59146;DHT22;44928;53.074;6.646;2023-05-13T00:29:23;12.50;99.90
59146;DHT22;44928;53.074;6.646;2023-05-13T00:31:49;12.40;99.90
59146;DHT22;44928;53.074;6.646;2023-05-13T00:34:15;12.40;99.90
59146;DHT22;44928;53.074;6.646;2023-05-13T00:36:43;12.40;99.90
59146;DHT22;44928;53.074;6.646;2023-05-13T00:39:09;12.30;99.90
59146;DHT22;44928;53.074;6.646;2023-05-13T00:41:36;12.30;99.90
59146;DHT22;44928;53.074;6.646;2023-05-13T00:44:02;12.20;99.90
59146;DHT22;44928;53.074;6.646;2023-05-13T00:46:30;12.20;99.90
59146;DHT22;44928;53.074;6.646;2023-05-13T00:48:58;12.10;99.90
59146;DHT22;44928;53.074;6.646;2023-05-13T00:51:24;12.10;99.90
59146;DHT22;44928;53.074;6.646;2023-05-13T00:53:50;12.10;99.90
59146;DHT22;44928;53.074;6.646;2023-05-13T00:56:19;12.00;99.90
59146;DHT22;44928;53.074;6.646;2023-05-13T00:58:48;12.00;99.90
59146;DHT22;44928;53.074;6.646;2023-05-13T01:01:40;12.00;99.90
59146;DHT22;44928;53.074;6.646;2023-05-13T01:07:25;11.90;99.90
59146;DHT22;44928;53.074;6.646;2023-05-13T01:10:35;11.90;99.90
59146;DHT22;44928;53.074;6.646;2023-05-13T01:13:07;11.90;99.90
59146;DHT22;44928;53.074;6.646;2023-05-13T01:15:40;11.80;99.90
59146;DHT22;44928;53.074;6.646;2023-05-13T01:18:09;11.80;99.90
59146;DHT22;44928;53.074;6.646;2023-05-13T01:20:40;11.80;99.90
59146;DHT22;44928;53.074;6.646;2023-05-13T01:23:05;11.80;99.90
59146;DHT22;44928;53.074;6.646;2023-05-13T01:25:31;11.70;99.90
59146;DHT22;44928;53.074;6.646;2023-05-13T01:27:57;11.70;99.90
59146;DHT22;44928;53.074;6.646;2023-05-13T01:30:23;11.70;99.90
59146;DHT22;44928;53.074;6.646;2023-05-13T01:32:50;11.70;99.90
59146;DHT22;44928;53.074;6.646;2023-05-13T01:35:16;11.60;99.90
59146;DHT22;44928;53.074;6.646;2023-05-13T01:37:43;11.60;99.90
59146;DHT22;44928;53.074;6.646;2023-05-13T01:40:09;11.60;99.90
59146;DHT22;44928;53.074;6.646;2023-05-13T01:42:35;11.60;99.90
59146;DHT22;44928;53.074;6.646;2023-05-13T01:45:02;11.60;99.90
59146;DHT22;44928;53.074;6.646;2023-05-13T01:47:28;11.60;99.90
59146;DHT22;44928;53.074;6.646;2023-05-13T01:49:53;11.60;99.90
59146;DHT22;44928;53.074;6.646;2023-05-13T01:52:19;11.50;99.90
59146;DHT22;44928;53.074;6.646;2023-05-13T01:54:45;11.50;99.90
59146;DHT22;44928;53.074;6.646;2023-05-13T01:57:11;11.50;99.90
59146;DHT22;44928;53.074;6.646;2023-05-13T01:59:36;11.50;99.90
59146;DHT22;44928;53.074;6.646;2023-05-13T02:02:02;11.50;99.90
59146;DHT22;44928;53.074;6.646;2023-05-13T02:04:28;11.50;99.90
59146;DHT22;44928;53.074;6.646;2023-05-13T02:06:54;11.40;99.90
59146;DHT22;44928;53.074;6.646;2023-05-13T02:09:20;11.40;99.90
59146;DHT22;44928;53.074;6.646;2023-05-13T02:11:45;11.40;99.90
59146;DHT22;44928;53.074;6.646;2023-05-13T02:14:11;11.40;99.90
59146;DHT22;44928;53.074;6.646;2023-05-13T02:16:37;11.40;99.90
59146;DHT22;44928;53.074;6.646;2023-05-13T02:19:03;11.30;99.90
59146;DHT22;44928;53.074;6.646;2023-05-13T02:21:28;11.30;99.90
59146;DHT22;44928;53.074;6.646;2023-05-13T02:23:54;11.30;99.90
59146;DHT22;44928;53.074;6.646;2023-05-13T02:26:20;11.30;99.90
59146;DHT22;44928;53.074;6.646;2023-05-13T02:28:46;11.30;99.90
59146;DHT22;44928;53.074;6.646;2023-05-13T02:31:12;11.30;99.90
59146;DHT22;44928;53.074;6.646;2023-05-13T02:33:38;11.30;99.90
59146;DHT22;44928;53.074;6.646;2023-05-13T02:36:04;11.20;99.90
59146;DHT22;44928;53.074;6.646;2023-05-13T02:38:30;11.20;99.90
59146;DHT22;44928;53.074;6.646;2023-05-13T02:40:55;11.20;99.90
59146;DHT22;44928;53.074;6.646;2023-05-13T02:43:21;11.10;99.90
59146;DHT22;44928;53.074;6.646;2023-05-13T02:45:49;11.10;99.90
59146;DHT22;44928;53.074;6.646;2023-05-13T02:48:15;11.10;99.90
59146;DHT22;44928;53.074;6.646;2023-05-13T02:50:41;11.10;99.90
59146;DHT22;44928;53.074;6.646;2023-05-13T02:53:07;11.10;99.90
59146;DHT22;44928;53.074;6.646;2023-05-13T02:55:32;11.10;99.90
59146;DHT22;44928;53.074;6.646;2023-05-13T02:57:58;11.10;99.90
59146;DHT22;44928;53.074;6.646;2023-05-13T03:00:24;11.00;99.90
59146;DHT22;44928;53.074;6.646;2023-05-13T03:02:50;11.00;99.90
59146;DHT22;44928;53.074;6.646;2023-05-13T03:05:16;11.00;99.90
59146;DHT22;44928;53.074;6.646;2023-05-13T03:07:41;11.00;99.90
59146;DHT22;44928;53.074;6.646;2023-05-13T03:10:08;11.00;99.90
59146;DHT22;44928;53.074;6.646;2023-05-13T03:12:33;11.00;99.90
59146;DHT22;44928;53.074;6.646;2023-05-13T03:14:59;10.90;99.90
59146;DHT22;44928;53.074;6.646;2023-05-13T03:17:25;10.90;99.90
59146;DHT22;44928;53.074;6.646;2023-05-13T03:19:51;10.80;99.90
59146;DHT22;44928;53.074;6.646;2023-05-13T03:22:17;10.80;99.90
59146;DHT22;44928;53.074;6.646;2023-05-13T03:24:42;10.70;99.90
59146;DHT22;44928;53.074;6.646;2023-05-13T03:27:09;10.70;99.90
59146;DHT22;44928;53.074;6.646;2023-05-13T03:29:34;10.70;99.90
59146;DHT22;44928;53.074;6.646;2023-05-13T03:32:00;10.70;99.90
59146;DHT22;44928;53.074;6.646;2023-05-13T03:34:26;10.70;99.90
59146;DHT22;44928;53.074;6.646;2023-05-13T03:36:52;10.60;99.90
59146;DHT22;44928;53.074;6.646;2023-05-13T03:39:17;10.60;99.90
59146;DHT22;44928;53.074;6.646;2023-05-13T03:41:43;10.60;99.90
59146;DHT22;44928;53.074;6.646;2023-05-13T03:44:10;10.50;99.90
59146;DHT22;44928;53.074;6.646;2023-05-13T03:46:35;10.50;99.90
59146;DHT22;44928;53.074;6.646;2023-05-13T03:49:01;10.50;99.90
59146;DHT22;44928;53.074;6.646;2023-05-13T03:51:27;10.50;99.90
59146;DHT22;44928;53.074;6.646;2023-05-13T03:53:53;10.50;99.90
59146;DHT22;44928;53.074;6.646;2023-05-13T03:56:19;10.50;99.90
59146;DHT22;44928;53.074;6.646;2023-05-13T03:58:46;10.50;99.90
59146;DHT22;44928;53.074;6.646;2023-05-13T04:01:11;10.50;99.90
59146;DHT22;44928;53.074;6.646;2023-05-13T04:03:37;10.50;99.90
59146;DHT22;44928;53.074;6.646;2023-05-13T04:06:03;10.50;99.90
59146;DHT22;44928;53.074;6.646;2023-05-13T04:08:28;10.50;99.90
59146;DHT22;44928;53.074;6.646;2023-05-13T04:10:54;10.60;99.90
59146;DHT22;44928;53.074;6.646;2023-05-13T04:13:21;10.60;99.90
59146;DHT22;44928;53.074;6.646;2023-05-13T04:15:47;10.60;99.90
59146;DHT22;44928;53.074;6.646;2023-05-13T04:18:13;10.60;99.90
59146;DHT22;44928;53.074;6.646;2023-05-13T04:20:39;10.60;99.90
59146;DHT22;44928;53.074;6.646;2023-05-13T04:23:05;10.60;99.90
59146;DHT22;44928;53.074;6.646;2023-05-13T04:25:31;10.60;99.90
59146;DHT22;44928;53.074;6.646;2023-05-13T04:27:57;10.60;99.90
59146;DHT22;44928;53.074;6.646;2023-05-13T04:30:22;10.60;99.90
59146;DHT22;44928;53.074;6.646;2023-05-13T04:32:48;10.60;99.90
59146;DHT22;44928;53.074;6.646;2023-05-13T04:35:14;10.60;99.90
59146;DHT22;44928;53.074;6.646;2023-05-13T04:37:40;10.60;99.90
59146;DHT22;44928;53.074;6.646;2023-05-13T04:40:07;10.70;99.90
59146;DHT22;44928;53.074;6.646;2023-05-13T04:42:33;10.60;99.90
59146;DHT22;44928;53.074;6.646;2023-05-13T04:44:59;10.60;99.90
59146;DHT22;44928;53.074;6.646;2023-05-13T04:47:25;10.70;99.90
59146;DHT22;44928;53.074;6.646;2023-05-13T04:49:50;10.70;99.90
59146;DHT22;44928;53.074;6.646;2023-05-13T04:52:16;10.70;99.90
59146;DHT22;44928;53.074;6.646;2023-05-13T04:54:42;10.70;99.90
59146;DHT22;44928;53.074;6.646;2023-05-13T04:57:08;10.80;99.90
59146;DHT22;44928;53.074;6.646;2023-05-13T04:59:33;10.80;99.90
59146;DHT22;44928;53.074;6.646;2023-05-13T05:01:59;10.90;99.90
59146;DHT22;44928;53.074;6.646;2023-05-13T05:04:26;10.90;99.90
59146;DHT22;44928;53.074;6.646;2023-05-13T05:06:52;11.00;99.90
59146;DHT22;44928;53.074;6.646;2023-05-13T05:09:18;11.10;99.90
59146;DHT22;44928;53.074;6.646;2023-05-13T05:11:43;11.20;99.90
59146;DHT22;44928;53.074;6.646;2023-05-13T05:14:09;11.30;99.90
59146;DHT22;44928;53.074;6.646;2023-05-13T05:16:35;11.30;99.90
59146;DHT22;44928;53.074;6.646;2023-05-13T05:19:01;11.40;99.90
59146;DHT22;44928;53.074;6.646;2023-05-13T05:21:27;11.50;99.90
59146;DHT22;44928;53.074;6.646;2023-05-13T05:23:52;11.60;99.90
59146;DHT22;44928;53.074;6.646;2023-05-13T05:26:18;11.60;99.90
59146;DHT22;44928;53.074;6.646;2023-05-13T05:28:44;11.70;99.90
59146;DHT22;44928;53.074;6.646;2023-05-13T05:31:10;11.80;99.90
59146;DHT22;44928;53.074;6.646;2023-05-13T05:33:37;11.80;99.90
59146;DHT22;44928;53.074;6.646;2023-05-13T05:36:03;11.90;99.90
59146;DHT22;44928;53.074;6.646;2023-05-13T05:38:29;11.90;99.90
59146;DHT22;44928;53.074;6.646;2023-05-13T05:40:55;12.00;99.90
59146;DHT22;44928;53.074;6.646;2023-05-13T05:43:21;12.10;99.90
59146;DHT22;44928;53.074;6.646;2023-05-13T05:45:46;12.10;99.90
59146;DHT22;44928;53.074;6.646;2023-05-13T05:48:12;12.10;99.90
59146;DHT22;44928;53.074;6.646;2023-05-13T05:50:38;12.10;99.90
59146;DHT22;44928;53.074;6.646;2023-05-13T05:53:04;12.20;99.90
59146;DHT22;44928;53.074;6.646;2023-05-13T05:55:31;12.20;99.90
59146;DHT22;44928;53.074;6.646;2023-05-13T05:57:57;12.30;99.90
59146;DHT22;44928;53.074;6.646;2023-05-13T06:00:28;12.30;99.90
59146;DHT22;44928;53.074;6.646;2023-05-13T06:02:54;12.40;99.90
59146;DHT22;44928;53.074;6.646;2023-05-13T06:05:22;12.40;99.90
59146;DHT22;44928;53.074;6.646;2023-05-13T06:07:48;12.40;99.90
59146;DHT22;44928;53.074;6.646;2023-05-13T06:10:13;12.50;99.90
59146;DHT22;44928;53.074;6.646;2023-05-13T06:12:39;12.50;99.90
59146;DHT22;44928;53.074;6.646;2023-05-13T06:15:07;12.60;99.90
59146;DHT22;44928;53.074;6.646;2023-05-13T06:17:36;12.70;99.90
59146;DHT22;44928;53.074;6.646;2023-05-13T06:20:02;12.70;99.90
59146;DHT22;44928;53.074;6.646;2023-05-13T06:22:28;12.70;99.90
59146;DHT22;44928;53.074;6.646;2023-05-13T06:24:54;12.80;99.90
59146;DHT22;44928;53.074;6.646;2023-05-13T06:27:19;12.90;99.90
59146;DHT22;44928;53.074;6.646;2023-05-13T06:29:45;13.00;99.90
59146;DHT22;44928;53.074;6.646;2023-05-13T06:32:11;13.00;99.90
59146;DHT22;44928;53.074;6.646;2023-05-13T06:34:36;13.10;99.90
59146;DHT22;44928;53.074;6.646;2023-05-13T06:37:04;13.10;99.90
59146;DHT22;44928;53.074;6.646;2023-05-13T06:39:30;13.10;99.90
59146;DHT22;44928;53.074;6.646;2023-05-13T06:41:56;13.20;99.90
59146;DHT22;44928;53.074;6.646;2023-05-13T06:44:22;13.20;99.90
59146;DHT22;44928;53.074;6.646;2023-05-13T06:46:47;13.40;99.90
59146;DHT22;44928;53.074;6.646;2023-05-13T06:49:13;13.40;99.90
59146;DHT22;44928;53.074;6.646;2023-05-13T06:51:39;13.40;99.90
59146;DHT22;44928;53.074;6.646;2023-05-13T06:54:05;13.60;99.90
59146;DHT22;44928;53.074;6.646;2023-05-13T06:56:30;13.60;99.90
59146;DHT22;44928;53.074;6.646;2023-05-13T06:58:56;13.70;99.90
59146;DHT22;44928;53.074;6.646;2023-05-13T07:01:22;13.70;99.90
59146;DHT22;44928;53.074;6.646;2023-05-13T07:03:48;13.90;99.90
59146;DHT22;44928;53.074;6.646;2023-05-13T07:06:13;13.90;99.90
59146;DHT22;44928;53.074;6.646;2023-05-13T07:08:39;14.00;99.90
59146;DHT22;44928;53.074;6.646;2023-05-13T07:11:05;14.10;99.90
59146;DHT22;44928;53.074;6.646;2023-05-13T07:13:31;14.20;99.90
59146;DHT22;44928;53.074;6.646;2023-05-13T07:15:59;14.30;99.90
59146;DHT22;44928;53.074;6.646;2023-05-13T07:18:27;14.40;99.90
59146;DHT22;44928;53.074;6.646;2023-05-13T07:20:53;14.50;99.90
59146;DHT22;44928;53.074;6.646;2023-05-13T07:23:21;14.60;99.90
59146;DHT22;44928;53.074;6.646;2023-05-13T07:25:47;14.70;99.90
59146;DHT22;44928;53.074;6.646;2023-05-13T07:28:14;14.80;99.90
59146;DHT22;44928;53.074;6.646;2023-05-13T07:30:40;14.80;99.90
59146;DHT22;44928;53.074;6.646;2023-05-13T07:33:06;14.90;99.90
59146;DHT22;44928;53.074;6.646;2023-05-13T07:35:32;15.00;99.90
59146;DHT22;44928;53.074;6.646;2023-05-13T07:37:58;15.10;99.90
59146;DHT22;44928;53.074;6.646;2023-05-13T07:40:23;15.10;99.90
59146;DHT22;44928;53.074;6.646;2023-05-13T07:42:49;15.20;99.90
59146;DHT22;44928;53.074;6.646;2023-05-13T07:45:15;15.30;99.90
59146;DHT22;44928;53.074;6.646;2023-05-13T07:47:40;15.30;99.90
59146;DHT22;44928;53.074;6.646;2023-05-13T07:50:07;15.40;99.90
59146;DHT22;44928;53.074;6.646;2023-05-13T07:52:33;15.50;99.90
59146;DHT22;44928;53.074;6.646;2023-05-13T07:54:58;15.50;99.90
59146;DHT22;44928;53.074;6.646;2023-05-13T07:57:24;15.60;99.90
59146;DHT22;44928;53.074;6.646;2023-05-13T07:59:50;15.70;99.90
59146;DHT22;44928;53.074;6.646;2023-05-13T08:02:17;15.70;99.90
59146;DHT22;44928;53.074;6.646;2023-05-13T08:04:42;15.80;99.90
59146;DHT22;44928;53.074;6.646;2023-05-13T08:07:09;15.80;99.90
59146;DHT22;44928;53.074;6.646;2023-05-13T08:09:35;15.90;99.90
59146;DHT22;44928;53.074;6.646;2023-05-13T08:12:01;15.90;99.90
59146;DHT22;44928;53.074;6.646;2023-05-13T08:14:26;16.00;99.90
59146;DHT22;44928;53.074;6.646;2023-05-13T08:16:53;16.10;99.90
59146;DHT22;44928;53.074;6.646;2023-05-13T08:19:19;16.20;99.90
59146;DHT22;44928;53.074;6.646;2023-05-13T08:21:44;16.20;99.90
59146;DHT22;44928;53.074;6.646;2023-05-13T08:24:10;16.40;99.90
59146;DHT22;44928;53.074;6.646;2023-05-13T08:26:36;16.60;99.90
59146;DHT22;44928;53.074;6.646;2023-05-13T08:29:02;16.60;99.90
59146;DHT22;44928;53.074;6.646;2023-05-13T08:31:28;16.60;99.90
59146;DHT22;44928;53.074;6.646;2023-05-13T08:33:56;16.80;99.90
59146;DHT22;44928;53.074;6.646;2023-05-13T08:36:22;16.90;99.90
59146;DHT22;44928;53.074;6.646;2023-05-13T08:38:50;16.90;99.90
59146;DHT22;44928;53.074;6.646;2023-05-13T08:41:16;17.00;99.90
59146;DHT22;44928;53.074;6.646;2023-05-13T08:43:42;17.10;99.90
59146;DHT22;44928;53.074;6.646;2023-05-13T08:46:10;17.30;99.90
59146;DHT22;44928;53.074;6.646;2023-05-13T08:48:40;17.40;99.90
59146;DHT22;44928;53.074;6.646;2023-05-13T08:51:09;17.60;99.90
59146;DHT22;44928;53.074;6.646;2023-05-13T08:53:37;17.80;99.90
59146;DHT22;44928;53.074;6.646;2023-05-13T08:56:04;17.90;99.90
59146;DHT22;44928;53.074;6.646;2023-05-13T08:58:57;18.10;99.90
59146;DHT22;44928;53.074;6.646;2023-05-13T09:01:24;18.30;99.90
59146;DHT22;44928;53.074;6.646;2023-05-13T09:03:58;18.40;99.90
59146;DHT22;44928;53.074;6.646;2023-05-13T09:06:25;18.60;99.90
59146;DHT22;44928;53.074;6.646;2023-05-13T09:08:53;18.70;99.90
59146;DHT22;44928;53.074;6.646;2023-05-13T09:11:20;18.90;99.90
59146;DHT22;44928;53.074;6.646;2023-05-13T09:13:57;19.00;99.90
59146;DHT22;44928;53.074;6.646;2023-05-13T09:16:24;19.10;99.90
59146;DHT22;44928;53.074;6.646;2023-05-13T09:18:59;19.20;99.90
59146;DHT22;44928;53.074;6.646;2023-05-13T09:21:28;19.30;99.90
59146;DHT22;44928;53.074;6.646;2023-05-13T09:24:13;19.40;99.90
59146;DHT22;44928;53.074;6.646;2023-05-13T09:26:49;19.50;99.90
59146;DHT22;44928;53.074;6.646;2023-05-13T09:29:24;19.70;99.90
59146;DHT22;44928;53.074;6.646;2023-05-13T09:31:53;19.80;99.90
59146;DHT22;44928;53.074;6.646;2023-05-13T09:34:26;20.00;99.90
59146;DHT22;44928;53.074;6.646;2023-05-13T09:39:22;20.40;99.90
59146;DHT22;44928;53.074;6.646;2023-05-13T09:41:47;20.60;99.90
59146;DHT22;44928;53.074;6.646;2023-05-13T09:44:13;20.80;99.90
59146;DHT22;44928;53.074;6.646;2023-05-13T09:46:41;21.00;99.90
59146;DHT22;44928;53.074;6.646;2023-05-13T09:49:09;21.10;99.90
59146;DHT22;44928;53.074;6.646;2023-05-13T09:51:35;21.30;99.90
59146;DHT22;44928;53.074;6.646;2023-05-13T09:54:07;21.40;99.90
59146;DHT22;44928;53.074;6.646;2023-05-13T09:56:36;21.50;99.80
59146;DHT22;44928;53.074;6.646;2023-05-13T09:59:02;21.70;98.20
59146;DHT22;44928;53.074;6.646;2023-05-13T10:01:29;21.80;97.60
59146;DHT22;44928;53.074;6.646;2023-05-13T10:03:56;21.80;96.70
59146;DHT22;44928;53.074;6.646;2023-05-13T10:06:25;22.00;98.20
59146;DHT22;44928;53.074;6.646;2023-05-13T10:08:51;22.20;98.20
59146;DHT22;44928;53.074;6.646;2023-05-13T10:11:18;22.30;97.30
59146;DHT22;44928;53.074;6.646;2023-05-13T10:13:48;22.50;96.60
59146;DHT22;44928;53.074;6.646;2023-05-13T10:16:15;22.70;95.90
59146;DHT22;44928;53.074;6.646;2023-05-13T10:18:42;22.80;94.80
59146;DHT22;44928;53.074;6.646;2023-05-13T10:21:09;23.00;94.10
59146;DHT22;44928;53.074;6.646;2023-05-13T10:23:36;23.10;94.10
59146;DHT22;44928;53.074;6.646;2023-05-13T10:26:02;23.20;94.70
59146;DHT22;44928;53.074;6.646;2023-05-13T10:28:28;23.30;94.20
59146;DHT22;44928;53.074;6.646;2023-05-13T10:30:54;23.40;95.10
59146;DHT22;44928;53.074;6.646;2023-05-13T10:33:20;23.50;95.70
59146;DHT22;44928;53.074;6.646;2023-05-13T10:44:04;24.00;90.40
59146;DHT22;44928;53.074;6.646;2023-05-13T10:46:33;24.10;86.80
59146;DHT22;44928;53.074;6.646;2023-05-13T10:48:59;24.20;83.10
59146;DHT22;44928;53.074;6.646;2023-05-13T10:51:25;24.10;82.30
59146;DHT22;44928;53.074;6.646;2023-05-13T10:53:53;24.20;82.10
59146;DHT22;44928;53.074;6.646;2023-05-13T10:56:24;24.20;80.90
59146;DHT22;44928;53.074;6.646;2023-05-13T10:59:01;24.30;83.20
59146;DHT22;44928;53.074;6.646;2023-05-13T11:01:29;24.50;88.30
59146;DHT22;44928;53.074;6.646;2023-05-13T11:03:59;24.70;89.20
59146;DHT22;44928;53.074;6.646;2023-05-13T11:06:36;24.80;86.60
59146;DHT22;44928;53.074;6.646;2023-05-13T11:12:08;25.00;78.50
59146;DHT22;44928;53.074;6.646;2023-05-13T11:14:41;25.30;80.30
59146;DHT22;44928;53.074;6.646;2023-05-13T11:17:10;25.40;76.50
59146;DHT22;44928;53.074;6.646;2023-05-13T11:19:46;25.50;74.20
59146;DHT22;44928;53.074;6.646;2023-05-13T11:22:20;25.60;76.00
59146;DHT22;44928;53.074;6.646;2023-05-13T11:25:08;25.70;72.40
59146;DHT22;44928;53.074;6.646;2023-05-13T11:27:38;25.70;73.60
59146;DHT22;44928;53.074;6.646;2023-05-13T11:30:06;25.80;67.60
59146;DHT22;44928;53.074;6.646;2023-05-13T11:35:27;26.00;68.50
59146;DHT22;44928;53.074;6.646;2023-05-13T11:38:01;26.10;63.60
59146;DHT22;44928;53.074;6.646;2023-05-13T11:40:34;26.20;62.00
59146;DHT22;44928;53.074;6.646;2023-05-13T11:43:01;26.50;63.30
59146;DHT22;44928;53.074;6.646;2023-05-13T11:45:37;26.60;58.00
59146;DHT22;44928;53.074;6.646;2023-05-13T11:48:41;26.60;60.60
59146;DHT22;44928;53.074;6.646;2023-05-13T11:51:09;26.70;57.50
59146;DHT22;44928;53.074;6.646;2023-05-13T11:53:35;26.80;56.40
59146;DHT22;44928;53.074;6.646;2023-05-13T11:56:09;26.80;54.30
59146;DHT22;44928;53.074;6.646;2023-05-13T11:58:37;26.80;54.20
59146;DHT22;44928;53.074;6.646;2023-05-13T12:01:03;26.90;52.40
59146;DHT22;44928;53.074;6.646;2023-05-13T12:03:32;26.90;51.70
59146;DHT22;44928;53.074;6.646;2023-05-13T12:06:04;26.90;51.70
59146;DHT22;44928;53.074;6.646;2023-05-13T12:08:30;27.00;52.10
59146;DHT22;44928;53.074;6.646;2023-05-13T12:10:58;27.00;52.50
59146;DHT22;44928;53.074;6.646;2023-05-13T12:13:24;27.00;53.60
59146;DHT22;44928;53.074;6.646;2023-05-13T12:15:50;27.10;54.30
59146;DHT22;44928;53.074;6.646;2023-05-13T12:18:16;27.00;53.10
59146;DHT22;44928;53.074;6.646;2023-05-13T12:20:42;26.80;52.90
59146;DHT22;44928;53.074;6.646;2023-05-13T12:23:09;26.50;53.80
59146;DHT22;44928;53.074;6.646;2023-05-13T12:25:41;26.20;53.90
59146;DHT22;44928;53.074;6.646;2023-05-13T12:28:15;26.10;53.40
59146;DHT22;44928;53.074;6.646;2023-05-13T12:33:19;25.80;53.80
59146;DHT22;44928;53.074;6.646;2023-05-13T12:35:47;25.90;54.60
59146;DHT22;44928;53.074;6.646;2023-05-13T12:38:15;25.80;57.20
59146;DHT22;44928;53.074;6.646;2023-05-13T12:40:44;25.50;58.20
59146;DHT22;44928;53.074;6.646;2023-05-13T12:43:11;25.20;60.10
59146;DHT22;44928;53.074;6.646;2023-05-13T12:45:40;24.90;62.00
59146;DHT22;44928;53.074;6.646;2023-05-13T12:48:06;24.70;64.00
59146;DHT22;44928;53.074;6.646;2023-05-13T12:50:32;24.60;66.20
59146;DHT22;44928;53.074;6.646;2023-05-13T12:52:57;24.60;66.30
59146;DHT22;44928;53.074;6.646;2023-05-13T12:55:25;24.70;65.40
59146;DHT22;44928;53.074;6.646;2023-05-13T12:58:03;24.80;65.30
59146;DHT22;44928;53.074;6.646;2023-05-13T13:00:31;24.80;64.10
59146;DHT22;44928;53.074;6.646;2023-05-13T13:02:57;24.80;63.70
59146;DHT22;44928;53.074;6.646;2023-05-13T13:05:23;24.80;62.50
59146;DHT22;44928;53.074;6.646;2023-05-13T13:07:50;24.70;61.90
59146;DHT22;44928;53.074;6.646;2023-05-13T13:10:16;24.70;64.40
59146;DHT22;44928;53.074;6.646;2023-05-13T13:12:42;24.70;64.80
59146;DHT22;44928;53.074;6.646;2023-05-13T13:15:09;24.70;64.40
59146;DHT22;44928;53.074;6.646;2023-05-13T13:17:35;24.60;65.20
59146;DHT22;44928;53.074;6.646;2023-05-13T13:20:01;24.60;66.10
59146;DHT22;44928;53.074;6.646;2023-05-13T13:22:29;24.50;66.80
59146;DHT22;44928;53.074;6.646;2023-05-13T13:24:55;24.60;67.20
59146;DHT22;44928;53.074;6.646;2023-05-13T13:27:21;24.70;67.80
59146;DHT22;44928;53.074;6.646;2023-05-13T13:29:46;24.70;67.80
59146;DHT22;44928;53.074;6.646;2023-05-13T13:32:12;24.80;68.00
59146;DHT22;44928;53.074;6.646;2023-05-13T13:34:38;24.80;64.40
59146;DHT22;44928;53.074;6.646;2023-05-13T13:37:04;24.80;65.90
59146;DHT22;44928;53.074;6.646;2023-05-13T13:39:30;24.90;66.10
59146;DHT22;44928;53.074;6.646;2023-05-13T13:41:55;24.90;67.20
59146;DHT22;44928;53.074;6.646;2023-05-13T13:44:22;25.00;68.10
59146;DHT22;44928;53.074;6.646;2023-05-13T13:46:47;25.00;66.30
59146;DHT22;44928;53.074;6.646;2023-05-13T13:49:13;25.00;66.50
59146;DHT22;44928;53.074;6.646;2023-05-13T13:51:39;25.10;68.90
59146;DHT22;44928;53.074;6.646;2023-05-13T13:54:06;25.20;67.70
59146;DHT22;44928;53.074;6.646;2023-05-13T13:56:34;25.20;64.50
59146;DHT22;44928;53.074;6.646;2023-05-13T13:59:00;25.20;66.20
59146;DHT22;44928;53.074;6.646;2023-05-13T14:01:26;25.20;66.50
59146;DHT22;44928;53.074;6.646;2023-05-13T14:06:36;25.30;63.60
59146;DHT22;44928;53.074;6.646;2023-05-13T14:09:02;25.10;63.60
59146;DHT22;44928;53.074;6.646;2023-05-13T14:11:28;24.90;64.30
59146;DHT22;44928;53.074;6.646;2023-05-13T14:13:54;24.90;64.10
59146;DHT22;44928;53.074;6.646;2023-05-13T14:16:19;25.00;64.90
59146;DHT22;44928;53.074;6.646;2023-05-13T14:18:45;25.20;64.00
59146;DHT22;44928;53.074;6.646;2023-05-13T14:21:11;25.30;62.20
59146;DHT22;44928;53.074;6.646;2023-05-13T14:23:37;25.50;61.50
59146;DHT22;44928;53.074;6.646;2023-05-13T14:26:03;25.60;61.00
59146;DHT22;44928;53.074;6.646;2023-05-13T14:28:28;25.80;60.80
59146;DHT22;44928;53.074;6.646;2023-05-13T14:30:54;25.80;60.20
59146;DHT22;44928;53.074;6.646;2023-05-13T14:33:20;25.80;59.30
59146;DHT22;44928;53.074;6.646;2023-05-13T14:35:46;25.80;58.60
59146;DHT22;44928;53.074;6.646;2023-05-13T14:38:11;25.80;58.40
59146;DHT22;44928;53.074;6.646;2023-05-13T14:40:37;25.80;58.10
59146;DHT22;44928;53.074;6.646;2023-05-13T14:43:03;25.80;57.60
59146;DHT22;44928;53.074;6.646;2023-05-13T14:45:29;25.70;58.10
59146;DHT22;44928;53.074;6.646;2023-05-13T14:47:55;25.60;57.70
59146;DHT22;44928;53.074;6.646;2023-05-13T14:50:21;25.50;57.60
59146;DHT22;44928;53.074;6.646;2023-05-13T14:52:46;25.50;59.40
59146;DHT22;44928;53.074;6.646;2023-05-13T14:55:12;25.40;60.30
59146;DHT22;44928;53.074;6.646;2023-05-13T14:57:38;25.20;61.00
59146;DHT22;44928;53.074;6.646;2023-05-13T15:00:04;25.20;61.80
59146;DHT22;44928;53.074;6.646;2023-05-13T15:02:30;25.10;61.30
59146;DHT22;44928;53.074;6.646;2023-05-13T15:04:56;25.10;60.50
59146;DHT22;44928;53.074;6.646;2023-05-13T15:07:21;25.00;59.50
59146;DHT22;44928;53.074;6.646;2023-05-13T15:09:48;24.90;59.90
59146;DHT22;44928;53.074;6.646;2023-05-13T15:12:14;24.80;58.60
59146;DHT22;44928;53.074;6.646;2023-05-13T15:14:40;24.70;58.40
59146;DHT22;44928;53.074;6.646;2023-05-13T15:17:06;24.60;58.60
59146;DHT22;44928;53.074;6.646;2023-05-13T15:19:37;24.50;57.60
59146;DHT22;44928;53.074;6.646;2023-05-13T15:22:03;24.40;58.50
59146;DHT22;44928;53.074;6.646;2023-05-13T15:24:29;24.30;58.20
59146;DHT22;44928;53.074;6.646;2023-05-13T15:26:55;24.20;56.80
59146;DHT22;44928;53.074;6.646;2023-05-13T15:29:22;24.10;59.10
59146;DHT22;44928;53.074;6.646;2023-05-13T15:31:48;24.00;59.90
59146;DHT22;44928;53.074;6.646;2023-05-13T15:34:15;24.00;60.40
59146;DHT22;44928;53.074;6.646;2023-05-13T15:36:41;23.90;60.30
59146;DHT22;44928;53.074;6.646;2023-05-13T15:39:07;23.80;61.30
59146;DHT22;44928;53.074;6.646;2023-05-13T15:41:32;23.80;61.90
59146;DHT22;44928;53.074;6.646;2023-05-13T15:43:58;23.70;61.40
59146;DHT22;44928;53.074;6.646;2023-05-13T15:46:24;23.60;62.00
59146;DHT22;44928;53.074;6.646;2023-05-13T15:48:50;23.50;62.40
59146;DHT22;44928;53.074;6.646;2023-05-13T15:51:16;23.50;62.00
59146;DHT22;44928;53.074;6.646;2023-05-13T15:53:42;23.40;62.70